createdAt,value
2018-05-21T00:05:32.277Z,5.79
2018-05-21T00:11:27.250Z,5.33
2018-05-21T00:17:22.256Z,4.4
2018-05-21T00:23:17.260Z,4.07
2018-05-21T00:29:12.217Z,4.09
2018-05-21T00:35:07.232Z,4.1
2018-05-21T00:41:02.248Z,4.68
2018-05-21T00:46:57.250Z,3.77
2018-05-21T00:52:52.216Z,3.93
2018-05-21T00:58:47.220Z,4.64
2018-05-21T01:04:42.248Z,3.9
2018-05-21T01:10:37.273Z,4.33
2018-05-21T01:16:32.303Z,4.55
2018-05-21T01:22:27.239Z,4.34
2018-05-21T01:28:22.278Z,4.56
2018-05-21T01:34:17.225Z,4.8
2018-05-21T01:40:12.230Z,5.19
2018-05-21T01:46:07.219Z,4.75
2018-05-21T01:52:02.229Z,5.1
2018-05-21T01:57:57.227Z,4.31
2018-05-21T02:03:52.220Z,4.18
2018-05-21T02:09:47.249Z,5.3
2018-05-21T02:15:42.226Z,4.42
2018-05-21T02:21:37.235Z,4.73
2018-05-21T02:27:32.247Z,4.79
2018-05-21T02:33:27.228Z,4.5
2018-05-21T02:39:22.263Z,12.21
2018-05-21T02:45:17.217Z,4.63
2018-05-21T02:51:12.239Z,4.93
2018-05-21T02:57:07.236Z,4.31
2018-05-21T03:03:02.251Z,4.87
2018-05-21T03:08:57.256Z,5.66
2018-05-21T03:14:52.230Z,5.02
2018-05-21T03:20:47.238Z,4.2
2018-05-21T03:26:42.265Z,4.63
2018-05-21T03:32:37.280Z,4.7
2018-05-21T03:38:32.245Z,4.8
2018-05-21T03:44:27.251Z,4.99
2018-05-21T03:50:22.231Z,5.45
2018-05-21T03:56:17.241Z,5.54
2018-05-21T04:02:12.262Z,5.27
2018-05-21T04:08:07.263Z,5.36
2018-05-21T04:14:02.256Z,5.36
2018-05-21T04:19:57.271Z,5.14
2018-05-21T04:25:52.258Z,5.55
2018-05-21T04:31:47.249Z,5.82
2018-05-21T04:37:42.266Z,5.19
2018-05-21T04:43:37.256Z,5.79
2018-05-21T04:49:32.247Z,5.91
2018-05-21T04:55:27.268Z,5.9
2018-05-21T05:01:22.268Z,6.17
2018-05-21T05:07:17.306Z,5.65
2018-05-21T05:13:12.283Z,5.77
2018-05-21T05:19:07.248Z,5.96
2018-05-21T05:25:02.264Z,5.88
2018-05-21T05:30:57.228Z,5.83
2018-05-21T05:36:52.264Z,5.72
2018-05-21T05:42:47.274Z,5.91
2018-05-21T05:48:42.308Z,5.5
2018-05-21T05:54:37.264Z,5.41
2018-05-21T06:00:32.239Z,5.65
2018-05-21T06:06:27.293Z,6.18
2018-05-21T06:12:22.373Z,5.4
2018-05-21T06:18:17.267Z,5.33
2018-05-21T06:24:12.290Z,6.11
2018-05-21T06:30:07.273Z,5.73
2018-05-21T06:36:02.279Z,5.79
2018-05-21T06:41:57.248Z,5.95
2018-05-21T06:47:52.391Z,5.57
2018-05-21T06:53:47.274Z,6
2018-05-21T06:59:42.403Z,5.99
2018-05-21T07:05:37.319Z,5.93
2018-05-21T07:11:32.288Z,5.87
2018-05-21T07:17:27.296Z,5.52
2018-05-21T07:23:22.328Z,5.26
2018-05-21T07:29:17.261Z,4.92
2018-05-21T07:35:12.343Z,6.17
2018-05-21T07:41:08.071Z,5.15
2018-05-21T07:47:02.281Z,5.31
2018-05-21T07:52:57.291Z,5.04
2018-05-21T07:58:52.285Z,4.9
2018-05-21T08:04:47.277Z,5.48
2018-05-21T08:10:42.328Z,5.01
2018-05-21T08:16:37.528Z,5.43
2018-05-21T08:22:32.302Z,4.73
2018-05-21T08:28:27.377Z,5.42
2018-05-21T08:34:22.340Z,4.62
2018-05-21T08:40:17.315Z,5.28
2018-05-21T08:46:12.360Z,5.19
2018-05-21T08:52:07.333Z,4.9
2018-05-21T08:58:02.333Z,5.08
2018-05-21T09:03:57.333Z,4.82
2018-05-21T09:09:52.369Z,4.62
2018-05-21T09:15:47.304Z,4.78
2018-05-21T09:21:42.300Z,5.09
2018-05-21T09:27:37.341Z,5.15
2018-05-21T09:33:32.314Z,4.77
2018-05-21T09:39:27.352Z,4.82
2018-05-21T09:45:22.316Z,4.8
2018-05-21T09:51:17.341Z,4.7
2018-05-21T09:57:12.395Z,4.47
2018-05-21T10:03:07.390Z,4.8
2018-05-21T10:09:02.340Z,4.5
2018-05-21T10:14:57.401Z,4.9
2018-05-21T10:20:52.355Z,4.75
2018-05-21T10:26:47.352Z,4.6
2018-05-21T10:32:42.401Z,5.01
2018-05-21T10:38:37.345Z,4.66
2018-05-21T10:44:32.359Z,4.63
2018-05-21T10:50:27.349Z,4.92
2018-05-21T10:56:22.528Z,4.83
2018-05-21T11:02:17.392Z,5.6
2018-05-21T11:08:12.343Z,5.37
2018-05-21T11:14:07.387Z,5.17
2018-05-21T11:20:02.615Z,5.2
2018-05-21T11:25:57.404Z,5.71
2018-05-21T11:31:52.411Z,5.67
2018-05-21T11:37:47.376Z,5.33
2018-05-21T11:43:42.366Z,4.93
2018-05-21T11:49:37.411Z,5.07
2018-05-21T11:55:32.422Z,5.21
2018-05-21T12:01:27.444Z,5.28
2018-05-21T12:07:22.414Z,5.09
2018-05-21T12:13:17.431Z,5.11
2018-05-21T12:19:12.468Z,4.69
2018-05-21T12:25:07.399Z,5.79
2018-05-21T12:31:02.380Z,4.55
2018-05-21T12:43:23.939Z,3.06
2018-05-21T12:49:18.979Z,3.26
2018-05-21T12:55:13.959Z,3.9
2018-05-21T13:01:08.924Z,5.13
2018-05-21T13:07:03.971Z,5.52
2018-05-21T13:12:58.969Z,5.53
2018-05-21T13:18:53.920Z,6.29
2018-05-21T13:24:48.969Z,6.83
2018-05-21T13:30:43.943Z,6.59
2018-05-21T13:36:38.962Z,5.43
2018-05-21T13:42:33.980Z,5.14
2018-05-21T13:48:28.969Z,4.78
2018-05-21T13:54:23.961Z,6.11
2018-05-21T14:00:18.965Z,4.35
2018-05-21T14:06:13.958Z,5.72
2018-05-21T14:12:09.008Z,5.67
2018-05-21T14:18:03.964Z,4.77
2018-05-21T14:23:58.964Z,4.79
2018-05-21T14:29:54.023Z,5.75
2018-05-21T14:35:49.000Z,5.57
2018-05-21T14:41:43.979Z,5.68
2018-05-21T14:47:39.009Z,6.28
2018-05-21T14:53:34.002Z,6.88
2018-05-21T14:59:28.986Z,6.27
2018-05-21T15:05:23.959Z,6.43
2018-05-21T15:11:18.987Z,11.91
2018-05-21T15:17:14.001Z,11.97
2018-05-21T15:23:08.981Z,11.97
2018-05-21T15:29:03.947Z,8.05
2018-05-21T15:34:59.035Z,8.78
2018-05-21T15:40:54.010Z,8.08
2018-05-21T15:46:48.981Z,9.64
2018-05-21T15:52:43.993Z,8.87
2018-05-21T15:58:38.972Z,8.61
2018-05-21T16:04:34.001Z,8.02
2018-05-21T16:10:28.996Z,8.63
2018-05-21T16:16:24.008Z,9.63
2018-05-21T16:22:19.022Z,6.84
2018-05-21T16:28:14.024Z,6.87
2018-05-21T16:34:08.976Z,8.55
2018-05-21T16:40:04.030Z,9.95
2018-05-21T16:45:59.005Z,10.56
2018-05-21T16:51:53.996Z,10.07
2018-05-21T16:57:49.014Z,9.97
2018-05-21T17:03:44.046Z,8.3
2018-05-21T17:09:39.081Z,9.61
2018-05-21T17:15:34.016Z,9.54
2018-05-21T17:21:29.046Z,7.6
2018-05-21T17:27:23.988Z,7.4
2018-05-21T17:33:18.994Z,8.42
2018-05-21T17:39:14.022Z,7.42
2018-05-21T17:45:09.003Z,7.28
2018-05-21T17:51:04.036Z,6.95
2018-05-21T17:56:59.012Z,8.27
2018-05-21T18:02:54.024Z,6.82
2018-05-21T18:08:49.064Z,5.86
2018-05-21T18:14:44.008Z,8.09
2018-05-21T18:20:39.072Z,6.3
2018-05-21T18:26:34.021Z,7.02
2018-05-21T18:32:29.052Z,7.68
2018-05-21T18:38:24.019Z,6.53
2018-05-21T18:44:19.033Z,7.05
2018-05-21T18:50:14.002Z,6.76
2018-05-21T18:56:09.033Z,7.72
2018-05-21T19:02:04.339Z,6.96
2018-05-21T19:07:59.034Z,5.73
2018-05-21T19:13:54.082Z,5.29
2018-05-21T19:19:49.036Z,5.76
2018-05-21T19:25:44.041Z,6.07
2018-05-21T19:31:39.017Z,5.13
2018-05-21T19:37:34.052Z,5.48
2018-05-21T19:43:29.018Z,6.42
2018-05-21T19:49:24.046Z,6.08
2018-05-21T19:55:19.040Z,5.84
2018-05-21T20:01:14.037Z,5.6
2018-05-21T20:07:09.040Z,5.56
2018-05-21T20:13:04.088Z,6.12
2018-05-21T20:18:59.037Z,11.66
2018-05-21T20:24:54.013Z,6.52
2018-05-21T20:30:49.063Z,6.46
2018-05-21T20:36:44.060Z,7.78
2018-05-21T20:42:39.072Z,7.06
2018-05-21T20:48:34.041Z,6.71
2018-05-21T20:54:29.066Z,8.17
2018-05-21T21:00:24.066Z,8.08
2018-05-21T21:06:19.063Z,6.42
2018-05-21T21:12:14.084Z,6.87
2018-05-21T21:18:09.045Z,6.16
2018-05-21T21:24:04.009Z,6.16
2018-05-21T21:29:59.042Z,6.61
2018-05-21T21:35:54.051Z,6.38
2018-05-21T21:41:49.002Z,6.69
2018-05-21T21:47:44.049Z,6.7
2018-05-21T21:53:39.047Z,7.73
2018-05-21T21:59:34.046Z,7.83
2018-05-21T22:05:29.018Z,7.06
2018-05-21T22:11:24.068Z,7.84
2018-05-21T22:17:19.031Z,7.8
2018-05-21T22:23:14.068Z,8.23
2018-05-21T22:29:09.133Z,8.47
2018-05-21T22:35:04.016Z,8.56
2018-05-21T22:40:59.038Z,8.86
2018-05-21T22:46:54.018Z,8.77
2018-05-21T22:52:49.028Z,9.2
2018-05-21T22:58:44.051Z,10.4
2018-05-21T23:04:39.042Z,10.72
2018-05-21T23:10:34.050Z,9.67
2018-05-21T23:16:29.051Z,11.13
2018-05-21T23:22:24.068Z,9.53
2018-05-21T23:28:19.083Z,9.79
2018-05-21T23:34:14.057Z,10.42
2018-05-21T23:40:09.100Z,10.63
2018-05-21T23:46:04.048Z,12.83
2018-05-21T23:51:59.065Z,9.62
2018-05-21T23:57:54.069Z,9.38
